Terminal Aerodrome Forecast
Issued by NWS

Home | Current Version | Previous Version | Text Only | Print | Product List | Glossary On
Versions: 1 2 3 4 5 6 7 8 9 10 11 12
000
FTUS42 TJSJ 281700
TAFKPK
TAF
TKPK 281740Z 2818/2918 09012KT P6SM VCSH SCT021
      TEMPO 2818/2819 BKN020
     FM282300 08008KT P6SM VCSH SCT022
     FM291330 07010KT P6SM FEW023
      AMD NOT SKED 2902/2911=

USA.gov is the U.S. government's official web portal to all federal, state and local government web resources and services.